Time;durP1;ratioP1;P1;durP2;ratioP2;P2;SDS_P1;SDS_P2;PMS_P1;PMS_P2;Temp;Humidity;BMP_temperature;BMP_pressure;BME280_temperature;BME280_humidity;BME280_pressure;Samples;Min_cycle;Max_cycle;Signal;HPM_P1;HPM_P2
2021/03/14 00:01:14;;;;;;;1.10;0.90;;;12.10;99.90;;;;;;5094799;28;20375;-52
2021/03/14 00:03:40;;;;;;;1.75;0.80;;;12.10;99.90;;;;;;5092134;28;20028;-56
2021/03/14 00:06:06;;;;;;;1.13;0.77;;;12.10;99.90;;;;;;5095030;28;20089;-54
2021/03/14 00:08:33;;;;;;;1.73;1.10;;;12.00;99.90;;;;;;5095021;28;20444;-53
2021/03/14 00:11:05;;;;;;;13.75;6.28;;;12.00;99.90;;;;;;5093474;28;20035;-53
2021/03/14 00:13:35;;;;;;;6.97;3.43;;;11.70;99.90;;;;;;5093712;28;20030;-53
2021/03/14 00:16:02;;;;;;;4.25;2.25;;;;;;;;;;5094792;28;20261;-53
2021/03/14 00:18:30;;;;;;;4.05;2.05;;;11.20;99.90;;;;;;5094709;28;20027;-56
2021/03/14 00:20:57;;;;;;;5.20;2.30;;;10.70;99.90;;;;;;5094789;28;20028;-54
2021/03/14 00:23:23;;;;;;;7.10;3.30;;;10.90;99.90;;;;;;5094681;28;20027;-54
2021/03/14 00:25:49;;;;;;;4.47;1.85;;;11.10;99.90;;;;;;5094448;28;20487;-56
2021/03/14 00:28:17;;;;;;;4.82;2.10;;;11.30;99.90;;;;;;5095008;28;20032;-53
2021/03/14 00:30:43;;;;;;;3.95;2.00;;;11.20;99.90;;;;;;5094527;28;20108;-55
2021/03/14 00:33:09;;;;;;;4.22;1.90;;;11.20;99.90;;;;;;5092511;28;20036;-52
2021/03/14 00:35:35;;;;;;;6.07;2.40;;;10.90;99.90;;;;;;5092484;28;20070;-52
2021/03/14 00:38:00;;;;;;;5.03;2.40;;;10.80;99.90;;;;;;5041882;28;20040;-56
2021/03/14 00:40:27;;;;;;;5.38;1.92;;;10.60;99.90;;;;;;5091721;28;20024;-51
2021/03/14 00:42:55;;;;;;;3.65;1.75;;;10.30;99.90;;;;;;5092208;28;20043;-53
2021/03/14 00:45:21;;;;;;;2.45;1.67;;;10.30;99.90;;;;;;5092214;28;20054;-56
2021/03/14 00:47:47;;;;;;;4.57;1.95;;;10.30;99.90;;;;;;5092266;28;20040;-55
2021/03/14 00:50:13;;;;;;;9.73;3.25;;;10.30;99.90;;;;;;5075135;28;20090;-55
2021/03/14 00:52:39;;;;;;;4.30;2.03;;;10.00;99.90;;;;;;5041844;28;20054;-51
2021/03/14 00:55:05;;;;;;;4.53;2.00;;;;;;;;;;5092066;28;20382;-54
2021/03/14 00:57:31;;;;;;;3.03;1.70;;;10.10;99.90;;;;;;5092188;28;20119;-52
2021/03/14 00:59:57;;;;;;;3.75;1.90;;;10.20;99.90;;;;;;5091909;28;20070;-53
2021/03/14 01:02:23;;;;;;;3.90;1.67;;;9.90;99.90;;;;;;5058343;28;20065;-51
2021/03/14 01:04:49;;;;;;;2.45;1.27;;;9.50;99.90;;;;;;5093327;28;20085;-51
2021/03/14 01:07:14;;;;;;;1.95;1.35;;;9.70;99.90;;;;;;5094340;28;20020;-54
2021/03/14 01:09:40;;;;;;;2.28;1.30;;;9.80;99.90;;;;;;5094122;28;20024;-55
2021/03/14 01:12:07;;;;;;;2.03;1.10;;;9.90;99.90;;;;;;5112271;28;20126;-51
2021/03/14 01:14:33;;;;;;;2.88;1.55;;;10.00;99.90;;;;;;5111802;28;20459;-54
2021/03/14 01:16:59;;;;;;;1.02;0.93;;;10.10;99.90;;;;;;5111991;28;20024;-56
2021/03/14 01:19:25;;;;;;;1.95;1.40;;;10.10;99.90;;;;;;5111928;28;20084;-54
2021/03/14 01:21:51;;;;;;;3.20;1.52;;;10.10;99.90;;;;;;5112087;28;20028;-53
2021/03/14 01:24:17;;;;;;;1.13;1.00;;;10.10;99.90;;;;;;5111910;28;20025;-53
2021/03/14 01:26:42;;;;;;;3.00;1.48;;;9.90;99.90;;;;;;5111854;28;20398;-56
2021/03/14 01:29:08;;;;;;;2.47;1.40;;;9.70;99.90;;;;;;5111959;28;20024;-55
2021/03/14 01:31:34;;;;;;;2.72;0.85;;;9.60;99.90;;;;;;5112331;28;20483;-54
2021/03/14 01:34:00;;;;;;;3.28;1.23;;;;;;;;;;5111764;28;20024;-51
2021/03/14 01:36:26;;;;;;;2.75;2.10;;;;;;;;;;5111681;28;20131;-53
2021/03/14 01:38:52;;;;;;;2.53;1.40;;;;;;;;;;5112060;28;20127;-52
2021/03/14 01:41:18;;;;;;;3.78;1.85;;;9.50;99.90;;;;;;5111662;28;20066;-53
2021/03/14 01:43:44;;;;;;;2.35;1.45;;;9.50;99.90;;;;;;5097649;28;20039;-52
2021/03/14 01:46:10;;;;;;;2.88;1.05;;;;;;;;;;5093330;28;20060;-52
2021/03/14 01:48:37;;;;;;;2.83;1.17;;;9.50;99.90;;;;;;5108518;28;20028;-53
2021/03/14 01:51:04;;;;;;;1.80;1.00;;;9.50;99.90;;;;;;5108547;28;20466;-54
2021/03/14 01:53:31;;;;;;;3.22;1.48;;;9.50;99.90;;;;;;5094120;28;20055;-51
2021/03/14 01:55:57;;;;;;;3.08;1.60;;;;;;;;;;5097889;28;20028;-52
2021/03/14 01:58:23;;;;;;;2.25;1.42;;;9.50;99.90;;;;;;5097266;28;20437;-54
2021/03/14 02:00:54;;;;;;;2.70;1.27;;;9.50;99.90;;;;;;5097486;28;20471;-57
2021/03/14 02:03:22;;;;;;;2.08;1.25;;;9.40;99.90;;;;;;5097467;28;20070;-56
2021/03/14 02:05:49;;;;;;;3.85;1.92;;;9.30;99.90;;;;;;5095146;28;20072;-51
2021/03/14 02:08:15;;;;;;;2.55;1.52;;;9.20;99.90;;;;;;5095054;28;20044;-55
2021/03/14 02:10:41;;;;;;;2.65;1.77;;;9.20;99.90;;;;;;5095328;28;20470;-52
2021/03/14 02:13:12;;;;;;;2.00;1.13;;;9.20;99.90;;;;;;5095330;28;20052;-52
2021/03/14 02:15:48;;;;;;;2.33;1.63;;;9.10;99.90;;;;;;5094936;28;20586;-55
2021/03/14 02:18:15;;;;;;;2.33;1.48;;;;;;;;;;5061329;28;20067;-54
2021/03/14 02:20:41;;;;;;;3.10;1.77;;;8.90;99.90;;;;;;5094937;28;20048;-57
2021/03/14 02:23:19;;;;;;;2.38;1.38;;;8.70;99.90;;;;;;5061358;28;20108;-54
2021/03/14 02:25:52;;;;;;;2.72;1.55;;;8.70;99.90;;;;;;5094861;28;20047;-54
2021/03/14 02:28:20;;;;;;;1.63;1.10;;;8.60;99.90;;;;;;5078570;28;20063;-56
2021/03/14 02:30:47;;;;;;;2.42;1.45;;;;;;;;;;5094851;28;20051;-56
2021/03/14 02:33:16;;;;;;;1.88;1.42;;;8.20;99.90;;;;;;5094742;28;20077;-53
2021/03/14 02:35:45;;;;;;;1.52;1.02;;;8.50;99.90;;;;;;5054417;28;20044;-53
2021/03/14 02:38:12;;;;;;;1.45;1.00;;;8.40;99.90;;;;;;5037688;28;20041;-53
2021/03/14 02:40:39;;;;;;;0.73;0.55;;;8.60;99.90;;;;;;5054333;28;20060;-53
2021/03/14 02:43:06;;;;;;;0.50;0.50;;;8.60;99.90;;;;;;5054252;28;20025;-53
2021/03/14 02:45:32;;;;;;;0.73;0.70;;;8.80;99.90;;;;;;5054215;28;20454;-56
2021/03/14 02:47:59;;;;;;;0.55;0.55;;;9.00;99.90;;;;;;5037425;28;20385;-53
2021/03/14 02:50:26;;;;;;;0.52;0.52;;;9.20;99.90;;;;;;5037288;28;20037;-54
2021/03/14 02:52:53;;;;;;;1.15;1.00;;;9.40;99.90;;;;;;5054394;28;20048;-55
2021/03/14 02:55:22;;;;;;;2.45;1.20;;;9.50;99.90;;;;;;5054008;28;20037;-54
2021/03/14 02:57:49;;;;;;;1.42;0.60;;;9.50;99.90;;;;;;5053869;28;20476;-53
2021/03/14 03:00:19;;;;;;;0.50;0.50;;;9.70;99.90;;;;;;5053997;28;20435;-55
2021/03/14 03:02:51;;;;;;;0.88;0.88;;;9.80;99.90;;;;;;5033915;28;20455;-54
2021/03/14 03:05:20;;;;;;;0.90;0.70;;;9.80;99.90;;;;;;5033295;28;20062;-56
2021/03/14 03:07:52;;;;;;;0.98;0.75;;;9.90;99.90;;;;;;5092459;28;20043;-56
2021/03/14 03:10:18;;;;;;;1.08;0.65;;;9.90;99.90;;;;;;5094077;28;20032;-55
2021/03/14 03:12:47;;;;;;;1.63;0.77;;;;;;;;;;5094062;28;20142;-56
2021/03/14 03:15:15;;;;;;;1.05;0.75;;;;;;;;;;5094263;28;20062;-54
2021/03/14 03:17:43;;;;;;;0.77;0.73;;;;;;;;;;5043803;28;20078;-53
2021/03/14 03:20:29;;;;;;;1.65;1.20;;;;;;;;;;5093753;28;20171;-54
2021/03/14 03:22:55;;;;;;;1.25;0.90;;;10.20;99.90;;;;;;5033633;28;20563;-52
2021/03/14 03:25:23;;;;;;;1.38;0.70;;;10.20;99.90;;;;;;5033544;28;20189;-55
2021/03/14 03:27:49;;;;;;;1.27;0.80;;;10.20;99.90;;;;;;5033741;28;20132;-55
2021/03/14 03:30:16;;;;;;;1.08;0.77;;;;;;;;;;4993818;28;20117;-53
2021/03/14 03:32:45;;;;;;;2.97;1.17;;;10.10;99.90;;;;;;4994055;28;20046;-53
2021/03/14 03:35:13;;;;;;;2.42;1.10;;;10.20;99.90;;;;;;4977855;28;20034;-53
2021/03/14 03:37:39;;;;;;;2.72;1.30;;;10.10;99.90;;;;;;4977111;28;20125;-54
2021/03/14 03:40:08;;;;;;;2.35;1.52;;;10.10;99.90;;;;;;4964267;28;20584;-54
2021/03/14 03:42:41;;;;;;;1.95;1.10;;;10.00;99.90;;;;;;4963901;28;20038;-53
2021/03/14 03:45:08;;;;;;;1.90;0.95;;;9.80;99.90;;;;;;5012874;28;20033;-57
2021/03/14 03:47:35;;;;;;;1.80;0.90;;;9.70;99.90;;;;;;5013272;28;20048;-54
2021/03/14 03:50:03;;;;;;;0.98;0.77;;;9.60;99.90;;;;;;5013437;28;20091;-56
2021/03/14 03:52:30;;;;;;;2.22;1.13;;;9.60;99.90;;;;;;4996610;28;20524;-53
2021/03/14 03:54:56;;;;;;;1.17;1.00;;;9.50;99.90;;;;;;5013356;28;20053;-54
2021/03/14 03:57:22;;;;;;;1.55;0.80;;;9.40;99.90;;;;;;5013226;28;20076;-54
2021/03/14 03:59:49;;;;;;;1.55;1.10;;;9.30;99.90;;;;;;5030031;28;20047;-53
2021/03/14 04:02:15;;;;;;;1.83;1.13;;;9.40;99.90;;;;;;5090617;28;20038;-56
2021/03/14 04:04:43;;;;;;;1.33;0.95;;;9.20;99.90;;;;;;5093835;28;20387;-51
2021/03/14 04:07:11;;;;;;;3.08;1.20;;;9.20;99.90;;;;;;5095001;28;20180;-55
2021/03/14 04:09:38;;;;;;;1.95;0.90;;;;;;;;;;5093923;28;20075;-55
2021/03/14 04:12:05;;;;;;;2.78;1.20;;;9.30;99.90;;;;;;5094935;28;20025;-52
2021/03/14 04:14:32;;;;;;;1.23;0.93;;;9.40;99.90;;;;;;5094897;28;20028;-52
2021/03/14 04:16:58;;;;;;;2.90;1.60;;;9.50;99.90;;;;;;5093930;28;20030;-54
2021/03/14 04:19:28;;;;;;;2.13;1.27;;;9.50;99.90;;;;;;5093755;28;20082;-52
2021/03/14 04:21:55;;;;;;;1.13;0.93;;;;;;;;;;5094971;28;20028;-52
2021/03/14 04:24:22;;;;;;;2.13;1.25;;;9.70;99.90;;;;;;5094729;28;20035;-52
2021/03/14 04:26:48;;;;;;;1.35;0.95;;;9.70;99.90;;;;;;5094466;28;20043;-52
2021/03/14 04:29:15;;;;;;;1.63;1.17;;;9.40;99.90;;;;;;5094633;28;20028;-53
2021/03/14 04:31:45;;;;;;;2.10;1.20;;;9.30;99.90;;;;;;5109980;28;20130;-52
2021/03/14 04:34:13;;;;;;;3.67;1.42;;;9.20;99.90;;;;;;5094589;28;20028;-54
2021/03/14 04:36:41;;;;;;;1.75;1.10;;;9.20;99.90;;;;;;5094801;28;20016;-53
2021/03/14 04:39:09;;;;;;;2.58;1.50;;;9.20;99.90;;;;;;5094484;28;20064;-53
2021/03/14 04:41:36;;;;;;;2.10;1.27;;;9.30;99.90;;;;;;5092686;28;20040;-53
2021/03/14 04:44:04;;;;;;;1.50;1.00;;;9.30;99.90;;;;;;5094315;28;20024;-53
2021/03/14 04:46:30;;;;;;;2.60;1.30;;;9.30;99.90;;;;;;5094209;28;20077;-53
2021/03/14 04:48:57;;;;;;;2.08;1.48;;;9.30;99.90;;;;;;5094378;28;20499;-54
2021/03/14 04:51:29;;;;;;;2.58;1.52;;;9.30;99.90;;;;;;5094138;28;20036;-55
2021/03/14 04:53:55;;;;;;;;;;;9.30;99.90;;;;;;5094726;28;20024;-52
2021/03/14 04:56:22;;;;;;;1.60;1.08;;;9.20;99.90;;;;;;5094244;28;19947;-53
2021/03/14 04:58:50;;;;;;;3.15;1.20;;;9.10;99.90;;;;;;5092298;28;20053;-53
2021/03/14 05:01:19;;;;;;;2.42;1.42;;;9.20;99.90;;;;;;5094458;28;20023;-53
2021/03/14 05:03:55;;;;;;;2.05;1.20;;;9.30;99.90;;;;;;5094088;28;20024;-52
2021/03/14 05:06:22;;;;;;;2.35;1.35;;;8.90;99.90;;;;;;5093986;28;20032;-52
2021/03/14 05:08:49;;;;;;;1.60;1.10;;;;;;;;;;5109154;28;20032;-53
2021/03/14 05:11:17;;;;;;;1.40;1.27;;;8.80;99.90;;;;;;5093778;28;20475;-55
2021/03/14 05:13:44;;;;;;;2.80;1.48;;;8.80;99.90;;;;;;5093919;28;20051;-53
2021/03/14 05:16:12;;;;;;;2.38;1.30;;;8.80;99.90;;;;;;5108851;28;20036;-54
2021/03/14 05:18:38;;;;;;;2.65;1.40;;;8.80;99.90;;;;;;5108901;28;20028;-52
2021/03/14 05:21:05;;;;;;;3.03;1.75;;;8.60;99.90;;;;;;5093639;28;20560;-54
2021/03/14 05:23:35;;;;;;;2.67;1.60;;;8.60;99.90;;;;;;5057692;28;20495;-54
2021/03/14 05:26:02;;;;;;;2.47;1.38;;;8.70;99.90;;;;;;5091548;28;20126;-53
2021/03/14 05:28:29;;;;;;;3.63;2.20;;;8.70;99.90;;;;;;5091292;28;20040;-55
2021/03/14 05:30:55;;;;;;;2.03;1.40;;;8.80;99.90;;;;;;5091847;28;20566;-55
2021/03/14 05:33:21;;;;;;;2.63;1.25;;;8.90;99.90;;;;;;5091607;28;20123;-52
2021/03/14 05:35:47;;;;;;;1.65;1.30;;;8.80;99.90;;;;;;5091819;28;20106;-56
2021/03/14 05:38:13;;;;;;;1.83;1.33;;;8.80;99.90;;;;;;5057614;28;20550;-55
2021/03/14 05:40:39;;;;;;;2.78;1.58;;;8.70;99.90;;;;;;5091508;28;20055;-56
2021/03/14 05:43:05;;;;;;;1.73;1.27;;;8.70;99.90;;;;;;5091295;28;20059;-55
2021/03/14 05:45:31;;;;;;;2.40;1.38;;;8.80;99.90;;;;;;5074341;28;20084;-56
2021/03/14 05:47:57;;;;;;;1.25;0.95;;;8.80;99.90;;;;;;5074398;28;20452;-53
2021/03/14 05:50:28;;;;;;;1.40;1.27;;;8.80;99.90;;;;;;5091137;28;20035;-52
2021/03/14 05:52:55;;;;;;;1.73;1.25;;;8.80;99.90;;;;;;5091076;28;20165;-56
2021/03/14 05:55:23;;;;;;;1.60;1.10;;;8.70;99.90;;;;;;5092942;28;20035;-53
2021/03/14 05:57:53;;;;;;;1.60;1.13;;;8.70;99.90;;;;;;5093299;28;20107;-55
2021/03/14 06:00:26;;;;;;;3.63;1.38;;;8.80;99.90;;;;;;5091994;28;20036;-52
2021/03/14 06:02:57;;;;;;;2.92;1.65;;;8.90;99.90;;;;;;5093284;28;20110;-52
2021/03/14 06:05:25;;;;;;;2.28;1.48;;;9.00;99.90;;;;;;5091050;28;20526;-56
2021/03/14 06:07:51;;;;;;;3.90;1.98;;;9.20;99.90;;;;;;5057293;28;20032;-54
2021/03/14 06:10:17;;;;;;;4.80;1.77;;;9.40;99.90;;;;;;5091038;28;20372;-55
2021/03/14 06:12:44;;;;;;;3.70;1.85;;;9.70;99.90;;;;;;5091470;28;20499;-54
2021/03/14 06:15:11;;;;;;;4.63;1.92;;;;;;;;;;5057224;28;20419;-55
2021/03/14 06:17:37;;;;;;;3.35;1.88;;;10.20;99.90;;;;;;5091100;28;20028;-52
2021/03/14 06:20:05;;;;;;;2.25;1.95;;;10.20;99.90;;;;;;5091280;28;20082;-53
2021/03/14 06:22:31;;;;;;;2.17;1.50;;;10.40;99.90;;;;;;5091046;28;20040;-52
2021/03/14 06:24:57;;;;;;;1.85;1.40;;;10.50;99.90;;;;;;5090890;28;20036;-53
2021/03/14 06:27:38;;;;;;;1.90;1.30;;;10.60;99.90;;;;;;5057215;28;20040;-55
2021/03/14 06:30:09;;;;;;;3.65;1.80;;;10.60;99.90;;;;;;5057391;28;20433;-55
2021/03/14 06:32:36;;;;;;;2.47;1.73;;;10.60;99.90;;;;;;5057539;28;20036;-54
2021/03/14 06:35:19;;;;;;;4.50;1.90;;;10.60;99.90;;;;;;5090895;28;20085;-53
2021/03/14 06:37:45;;;;;;;4.70;2.40;;;;;;;;;;5093100;28;20032;-54
2021/03/14 06:40:15;;;;;;;3.60;2.17;;;11.00;99.90;;;;;;5096097;28;20036;-54
2021/03/14 06:42:42;;;;;;;2.90;1.90;;;11.20;99.90;;;;;;5096659;28;20028;-55
2021/03/14 06:45:16;;;;;;;3.38;2.10;;;11.30;99.90;;;;;;5053887;28;20064;-54
2021/03/14 06:47:46;;;;;;;2.03;1.20;;;11.20;99.90;;;;;;5054182;28;20037;-55
2021/03/14 06:50:32;;;;;;;2.33;1.63;;;11.30;99.90;;;;;;5054215;28;20491;-54
2021/03/14 06:53:09;;;;;;;3.30;2.25;;;11.30;99.90;;;;;;4994876;28;20072;-55
2021/03/14 06:55:36;;;;;;;4.47;2.08;;;11.50;99.90;;;;;;4994629;28;20033;-56
2021/03/14 06:58:20;;;;;;;3.83;2.13;;;11.60;99.90;;;;;;4993827;28;20034;-54
2021/03/14 07:01:13;;;;;;;2.42;1.77;;;11.80;99.90;;;;;;4974935;28;20043;-54
2021/03/14 07:03:44;;;;;;;2.63;1.92;;;11.90;99.90;;;;;;4974900;28;20049;-52
2021/03/14 07:06:20;;;;;;;4.75;2.65;;;11.90;99.90;;;;;;4974990;28;20049;-51
2021/03/14 07:08:49;;;;;;;6.35;2.20;;;12.10;99.90;;;;;;4975045;28;20598;-51
2021/03/14 07:11:40;;;;;;;4.07;2.20;;;12.10;99.90;;;;;;4974966;28;20178;-52
2021/03/14 07:14:11;;;;;;;3.47;2.15;;;12.20;99.90;;;;;;4975060;28;20035;-52
2021/03/14 07:16:43;;;;;;;27.40;19.17;;;;;;;;;;5002135;28;20480;-52
2021/03/14 07:19:09;;;;;;;17.40;15.55;;;;;;;;;;5013789;28;20185;-51
2021/03/14 07:21:35;;;;;;;18.45;15.95;;;13.20;99.90;;;;;;4997640;28;20548;-52
2021/03/14 07:24:02;;;;;;;139.82;101.97;;;;;;;;;;5014002;28;20505;-52
2021/03/14 07:26:54;;;;;;;28.05;25.48;;;;;;;;;;5013662;28;20061;-52
2021/03/14 07:29:19;;;;;;;11.57;7.18;;;14.10;99.90;;;;;;4991097;28;20415;-51
2021/03/14 07:31:46;;;;;;;8.85;4.82;;;;;;;;;;5023004;28;20029;-51
2021/03/14 07:34:12;;;;;;;6.38;3.30;;;;;;;;;;5073548;28;20028;-50
2021/03/14 07:36:38;;;;;;;3.53;2.20;;;16.10;99.90;;;;;;5073351;28;20036;-50
2021/03/14 07:39:05;;;;;;;2.60;2.10;;;16.40;99.90;;;;;;5073336;28;20454;-50
2021/03/14 07:41:31;;;;;;;3.22;1.95;;;16.40;99.90;;;;;;5074912;28;20028;-51
2021/03/14 07:44:00;;;;;;;2.45;1.75;;;16.40;99.90;;;;;;5075462;28;20042;-50
2021/03/14 07:46:26;;;;;;;3.42;2.10;;;16.50;99.90;;;;;;5075504;28;20047;-50
2021/03/14 07:48:53;;;;;;;1.80;1.48;;;16.40;99.90;;;;;;5073719;28;20059;-51
2021/03/14 07:51:24;;;;;;;2.30;1.73;;;16.30;99.90;;;;;;5039977;28;20135;-50
2021/03/14 07:53:52;;;;;;;4.35;1.83;;;16.40;99.90;;;;;;5094824;28;20514;-50
2021/03/14 07:56:18;;;;;;;2.00;1.35;;;16.80;99.90;;;;;;5095429;28;20032;-50
2021/03/14 07:58:44;;;;;;;1.23;0.75;;;;;;;;;;5092926;28;20043;-51
2021/03/14 08:01:24;;;;;;;5.68;2.22;;;;;;;;;;5095033;28;20032;-50
2021/03/14 08:03:50;;;;;;;2.50;1.60;;;;;;;;;;5110388;28;20440;-50
2021/03/14 08:06:16;;;;;;;3.33;2.30;;;16.70;99.90;;;;;;5095253;28;20050;-49
2021/03/14 08:08:42;;;;;;;1.80;1.60;;;16.50;99.90;;;;;;5110333;28;20089;-50
2021/03/14 08:11:22;;;;;;;1.67;1.40;;;16.50;99.90;;;;;;5095043;28;20060;-49
2021/03/14 08:13:49;;;;;;;8.63;5.28;;;16.90;99.90;;;;;;5095261;28;20028;-50
2021/03/14 08:16:15;;;;;;;3.55;1.90;;;17.30;99.90;;;;;;5093250;28;20047;-50
2021/03/14 08:18:43;;;;;;;6.90;1.83;;;17.70;99.90;;;;;;5110389;28;20172;-49
2021/03/14 08:21:21;;;;;;;11.32;7.68;;;;;;;;;;5110426;28;20044;-50
2021/03/14 08:23:48;;;;;;;3.17;2.25;;;18.80;99.90;;;;;;5094637;28;20031;-50
2021/03/14 08:26:22;;;;;;;7.72;5.38;;;18.80;98.10;;;;;;5094621;28;20032;-50
2021/03/14 08:29:09;;;;;;;2.50;2.00;;;18.50;98.60;;;;;;5094716;28;20028;-49
2021/03/14 08:31:53;;;;;;;3.67;2.00;;;18.50;97.80;;;;;;5093529;28;20040;-50
2021/03/14 08:34:23;;;;;;;3.33;2.40;;;18.80;98.60;;;;;;5094481;28;20052;-49
2021/03/14 08:36:50;;;;;;;5.30;4.07;;;;;;;;;;5094964;28;20035;-50
2021/03/14 08:39:33;;;;;;;9.48;4.10;;;20.00;99.90;;;;;;5109229;28;20036;-50
2021/03/14 08:42:01;;;;;;;1.60;1.50;;;;;;;;;;5091735;28;20040;-50
2021/03/14 08:44:33;;;;;;;2.58;1.63;;;;;;;;;;5094583;28;20032;-49
2021/03/14 08:46:59;;;;;;;;;;;;;;;;;;5095301;28;20047;-50
2021/03/14 08:49:25;;;;;;;2.50;1.10;;;;;;;;;;5094248;28;19908;-50
2021/03/14 08:51:51;;;;;;;2.25;1.13;;;21.90;84.10;;;;;;5094204;28;20102;-50
2021/03/14 08:54:25;;;;;;;1.67;1.30;;;22.10;78.00;;;;;;5094599;28;20055;-50
2021/03/14 08:56:54;;;;;;;1.73;1.30;;;;;;;;;;5094308;28;20036;-49
2021/03/14 08:59:21;;;;;;;1.17;0.90;;;22.30;77.70;;;;;;5059220;28;20051;-49
2021/03/14 09:01:52;;;;;;;1.55;1.30;;;22.10;74.60;;;;;;5107067;28;20042;-50
2021/03/14 09:04:19;;;;;;;2.88;1.20;;;22.20;77.60;;;;;;5092996;28;20032;-50
2021/03/14 09:06:45;;;;;;;1.13;1.02;;;22.00;74.20;;;;;;5092870;28;20034;-49
2021/03/14 09:09:13;;;;;;;1.35;1.00;;;22.00;75.00;;;;;;5091521;28;20043;-50
2021/03/14 09:11:51;;;;;;;1.63;1.00;;;22.20;76.10;;;;;;5090417;28;20046;-48
2021/03/14 09:14:29;;;;;;;1.30;1.17;;;;;;;;;;5090343;28;20035;-50
2021/03/14 09:17:06;;;;;;;2.38;1.50;;;22.70;86.30;;;;;;5090474;28;20047;-50
2021/03/14 09:19:42;;;;;;;1.73;1.05;;;23.10;70.40;;;;;;5056399;28;20538;-49
2021/03/14 09:22:11;;;;;;;1.65;1.00;;;;;;;;;;5086878;28;20054;-53
2021/03/14 09:24:40;;;;;;;1.95;1.20;;;;;;;;;;5090070;28;20138;-50
2021/03/14 09:27:34;;;;;;;1.27;1.13;;;23.10;95.10;;;;;;5056037;28;20051;-51
2021/03/14 09:30:09;;;;;;;1.15;1.05;;;;;;;;;;5089250;28;20036;-50
2021/03/14 09:32:36;;;;;;;1.77;1.05;;;;;;;;;;5090095;28;20044;-49
2021/03/14 09:35:10;;;;;;;1.60;0.95;;;;;;;;;;5089922;28;20042;-51
2021/03/14 09:37:37;;;;;;;3.15;1.63;;;22.40;95.40;;;;;;5089964;28;20036;-50
2021/03/14 09:40:10;;;;;;;1.85;1.38;;;22.20;74.10;;;;;;5089849;28;20040;-50
2021/03/14 09:42:37;;;;;;;3.53;1.95;;;;;;;;;;5078406;28;20043;-51
2021/03/14 09:45:09;;;;;;;2.53;1.42;;;;;;;;;;5084847;28;20057;-50
2021/03/14 09:47:35;;;;;;;0.77;0.77;;;;;;;;;;5084816;28;20037;-50
2021/03/14 09:50:07;;;;;;;1.60;1.10;;;21.50;75.40;;;;;;5090094;28;20025;-48
2021/03/14 09:52:34;;;;;;;1.15;1.00;;;21.60;67.80;;;;;;5091976;28;20507;-45
2021/03/14 09:54:59;;;;;;;2.75;1.30;;;21.60;68.10;;;;;;5092284;28;20086;-49
2021/03/14 09:57:25;;;;;;;3.00;2.25;;;21.60;66.40;;;;;;5092262;28;20450;-50
2021/03/14 09:59:51;;;;;;;2.30;1.50;;;21.60;66.30;;;;;;5106778;28;20044;-51
2021/03/14 10:02:17;;;;;;;4.30;2.70;;;21.60;67.20;;;;;;5092248;28;20034;-52
2021/03/14 10:04:47;;;;;;;11.10;6.40;;;;;;;;;;5092316;28;20063;-49
2021/03/14 10:07:23;;;;;;;18.45;10.00;;;;;;;;;;5091626;28;20040;-49
2021/03/14 10:09:49;;;;;;;8.68;5.68;;;;;;;;;;5092099;28;20032;-52
2021/03/14 10:12:15;;;;;;;8.82;6.25;;;;;;;;;;5092020;28;20024;-50
2021/03/14 10:14:41;;;;;;;13.25;7.93;;;18.20;99.90;;;;;;5094291;28;20562;-49
2021/03/14 10:17:07;;;;;;;10.70;7.30;;;17.80;99.90;;;;;;5096050;28;20367;-52
2021/03/14 10:19:34;;;;;;;11.30;6.22;;;17.70;99.90;;;;;;5095890;28;20043;-52
2021/03/14 10:22:00;;;;;;;7.45;5.80;;;;;;;;;;5095904;28;20031;-51
2021/03/14 10:24:31;;;;;;;9.40;6.75;;;16.80;99.90;;;;;;5093806;28;20040;-47
2021/03/14 10:26:58;;;;;;;11.32;6.97;;;;;;;;;;5095708;28;20040;-49
2021/03/14 10:29:30;;;;;;;14.88;7.28;;;;;;;;;;5096017;28;20028;-50
2021/03/14 10:31:56;;;;;;;14.50;7.43;;;;;;;;;;5110647;28;20071;-50
2021/03/14 10:34:23;;;;;;;9.93;5.60;;;;;;;;;;5095797;28;20032;-50
2021/03/14 10:36:49;;;;;;;7.88;5.53;;;;;;;;;;5095807;28;20118;-51
2021/03/14 10:39:26;;;;;;;14.57;7.75;;;17.10;99.90;;;;;;5095710;28;20035;-51
2021/03/14 10:41:52;;;;;;;10.63;6.82;;;;;;;;;;5095632;28;20352;-52
2021/03/14 10:44:26;;;;;;;10.85;6.45;;;;;;;;;;5095382;28;20040;-51
2021/03/14 10:46:54;;;;;;;9.52;5.63;;;17.20;99.90;;;;;;5110383;28;20059;-51
2021/03/14 10:49:27;;;;;;;10.73;6.13;;;;;;;;;;5095379;28;20036;-52
2021/03/14 10:51:59;;;;;;;13.18;7.57;;;17.60;99.90;;;;;;5095232;28;20078;-48
2021/03/14 10:54:35;;;;;;;12.52;8.02;;;;;;;;;;5095337;28;20026;-49
2021/03/14 10:57:12;;;;;;;13.85;8.05;;;18.00;99.90;;;;;;5095232;28;20032;-52
2021/03/14 10:59:38;;;;;;;13.52;7.80;;;;;;;;;;5095180;28;20024;-52
2021/03/14 11:02:15;;;;;;;18.23;9.13;;;18.40;99.90;;;;;;5095108;28;20036;-53
2021/03/14 11:04:41;;;;;;;18.73;9.85;;;18.50;99.90;;;;;;5095263;28;20510;-49
2021/03/14 11:07:23;;;;;;;12.98;7.80;;;18.30;99.90;;;;;;5109803;28;20097;-53
2021/03/14 11:09:49;;;;;;;20.15;10.38;;;18.40;99.90;;;;;;5095087;28;20035;-50
2021/03/14 11:12:31;;;;;;;14.38;8.10;;;;;;;;;;5109795;28;20048;-51
2021/03/14 11:14:58;;;;;;;11.73;7.88;;;;;;;;;;5095209;28;20031;-52
2021/03/14 11:17:29;;;;;;;13.65;8.10;;;18.70;99.90;;;;;;5094965;28;20106;-52
2021/03/14 11:19:56;;;;;;;16.02;8.90;;;18.90;99.90;;;;;;5094821;28;20043;-50
2021/03/14 11:22:21;;;;;;;16.88;10.20;;;18.80;99.90;;;;;;5094879;28;20428;-49
2021/03/14 11:24:48;;;;;;;17.20;9.65;;;19.10;99.90;;;;;;5092072;28;20039;-49
2021/03/14 11:27:15;;;;;;;11.68;7.47;;;;;;;;;;5094703;28;20067;-52
2021/03/14 11:29:41;;;;;;;8.88;6.22;;;;;;;;;;5094803;28;20101;-52
2021/03/14 11:32:13;;;;;;;13.02;7.78;;;;;;;;;;5094563;28;20024;-49
2021/03/14 11:34:40;;;;;;;10.32;6.68;;;;;;;;;;5094697;28;20040;-49
2021/03/14 11:37:06;;;;;;;16.23;8.57;;;;;;;;;;5094412;28;20077;-50
2021/03/14 11:39:33;;;;;;;9.77;5.30;;;19.60;99.90;;;;;;5094091;28;20028;-50
2021/03/14 11:41:59;;;;;;;9.60;5.68;;;19.50;99.90;;;;;;5094403;28;20360;-50
2021/03/14 11:44:25;;;;;;;9.55;5.85;;;19.20;99.90;;;;;;5090322;28;20089;-49
2021/03/14 11:46:51;;;;;;;8.23;5.60;;;19.10;99.90;;;;;;5071582;28;20045;-49
2021/03/14 11:49:16;;;;;;;10.98;6.55;;;18.80;96.60;;;;;;5071541;28;20032;-52
2021/03/14 11:51:42;;;;;;;11.20;6.57;;;18.90;97.80;;;;;;5073548;28;20048;-50
2021/03/14 11:54:11;;;;;;;10.77;6.40;;;19.00;96.90;;;;;;5071587;28;20037;-49
2021/03/14 11:56:36;;;;;;;7.28;5.20;;;19.10;96.80;;;;;;5055055;28;20114;-51
2021/03/14 11:59:03;;;;;;;9.40;5.85;;;19.20;96.60;;;;;;5073771;28;20036;-50
2021/03/14 12:01:29;;;;;;;10.25;6.05;;;;;;;;;;5073713;28;20496;-51
2021/03/14 12:03:54;;;;;;;8.00;4.97;;;19.50;99.90;;;;;;5073702;28;20029;-52
2021/03/14 12:06:21;;;;;;;10.40;5.47;;;19.50;99.90;;;;;;5073739;28;20128;-53
2021/03/14 12:08:47;;;;;;;8.00;4.50;;;19.50;99.90;;;;;;5073717;28;20379;-50
2021/03/14 12:11:14;;;;;;;9.13;4.80;;;19.30;99.90;;;;;;5073632;28;20032;-49
2021/03/14 12:13:40;;;;;;;6.45;4.60;;;19.10;99.90;;;;;;5073502;28;20427;-51
2021/03/14 12:16:11;;;;;;;10.68;5.97;;;18.90;99.90;;;;;;5073145;28;20040;-52
2021/03/14 12:18:36;;;;;;;11.18;6.03;;;18.70;95.90;;;;;;5073435;28;20036;-50
2021/03/14 12:21:03;;;;;;;11.27;6.45;;;18.70;99.90;;;;;;5073411;28;20387;-48
2021/03/14 12:23:30;;;;;;;16.63;7.80;;;18.70;99.90;;;;;;5073398;28;20043;-53
2021/03/14 12:25:56;;;;;;;13.25;7.65;;;18.60;99.90;;;;;;5080104;28;20043;-53
2021/03/14 12:28:22;;;;;;;16.83;8.18;;;18.50;97.30;;;;;;5089972;28;20070;-55
2021/03/14 12:30:48;;;;;;;20.00;10.45;;;18.40;96.90;;;;;;5093410;28;20035;-45
2021/03/14 12:33:14;;;;;;;20.15;10.55;;;18.30;95.60;;;;;;5093489;28;20115;-46
2021/03/14 12:35:40;;;;;;;16.40;10.25;;;18.40;96.20;;;;;;5090678;28;20044;-52
2021/03/14 12:38:06;;;;;;;8.20;5.55;;;18.50;95.20;;;;;;5056330;28;20036;-48
2021/03/14 12:40:32;;;;;;;10.90;6.70;;;18.50;94.40;;;;;;5090823;28;20119;-48
2021/03/14 12:42:57;;;;;;;13.80;7.55;;;18.50;95.60;;;;;;5090657;28;20040;-50
2021/03/14 12:45:23;;;;;;;10.43;6.72;;;18.30;96.50;;;;;;5023054;28;20111;-52
2021/03/14 12:47:50;;;;;;;17.60;10.02;;;18.10;96.80;;;;;;5090034;28;20036;-51
2021/03/14 12:50:17;;;;;;;13.85;7.80;;;18.00;98.50;;;;;;5053539;28;20580;-52
2021/03/14 12:52:42;;;;;;;11.93;6.50;;;17.90;96.70;;;;;;5089656;28;20048;-52
2021/03/14 12:55:09;;;;;;;9.30;5.38;;;17.80;96.00;;;;;;5090286;28;20043;-52
2021/03/14 12:57:35;;;;;;;23.95;10.02;;;17.80;96.50;;;;;;5090333;28;20025;-54
2021/03/14 13:00:05;;;;;;;8.90;5.47;;;17.70;99.90;;;;;;5090235;28;20028;-53
2021/03/14 13:02:31;;;;;;;22.30;10.35;;;17.50;95.10;;;;;;5023009;28;20048;-53
2021/03/14 13:04:59;;;;;;;31.70;12.30;;;17.40;95.60;;;;;;5090226;28;20437;-52
2021/03/14 13:07:25;;;;;;;1.77;1.58;;;17.40;95.80;;;;;;5057505;28;20075;-51
2021/03/14 13:09:51;;;;;;;2.47;1.30;;;16.50;96.10;;;;;;5092915;28;20028;-54
2021/03/14 13:12:17;;;;;;;1.83;1.20;;;;;;;;;;5092834;28;20059;-51
2021/03/14 13:14:43;;;;;;;2.38;1.48;;;16.10;99.90;;;;;;5107671;28;20040;-52
2021/03/14 13:17:08;;;;;;;3.60;1.92;;;16.20;99.90;;;;;;5090566;28;20081;-54